createdAt,value
2022-09-07T00:02:36.827Z,82.72
2022-09-07T00:07:39.663Z,82.88
2022-09-07T00:12:42.803Z,83.08
2022-09-07T00:17:46.916Z,83.09
2022-09-07T00:22:49.637Z,83.02
2022-09-07T00:27:52.381Z,83.04
2022-09-07T00:32:56.451Z,83.28
2022-09-07T00:37:59.245Z,83.32
2022-09-07T00:43:02.085Z,83.30
2022-09-07T00:48:10.026Z,83.39
2022-09-07T00:53:15.775Z,83.24
2022-09-07T00:58:18.883Z,83.46
2022-09-07T01:03:25.828Z,83.72
2022-09-07T01:08:29.841Z,83.93
2022-09-07T01:13:33.171Z,84.10
2022-09-07T01:18:42.551Z,83.96
2022-09-07T01:24:14.234Z,84.27
2022-09-07T01:29:21.718Z,84.13
2022-09-07T01:34:26.430Z,84.13
2022-09-07T01:39:35.590Z,83.96
2022-09-07T01:44:41.321Z,83.98
2022-09-07T01:49:48.956Z,84.19
2022-09-07T01:54:53.935Z,84.25
2022-09-07T02:00:02.498Z,84.31
2022-09-07T02:05:18.622Z,84.34
2022-09-07T02:10:25.747Z,84.53
2022-09-07T02:15:34.243Z,84.43
2022-09-07T02:20:38.981Z,84.41
2022-09-07T02:25:44.508Z,84.37
2022-09-07T02:30:49.006Z,84.35
2022-09-07T02:35:52.289Z,84.37
2022-09-07T02:40:56.406Z,84.45
2022-09-07T02:46:16.058Z,84.36
2022-09-07T02:51:24.176Z,84.27
2022-09-07T02:56:36.026Z,84.19
2022-09-07T03:01:48.648Z,84.17
2022-09-07T03:06:54.434Z,83.99
2022-09-07T03:11:57.379Z,84.11
2022-09-07T03:17:02.245Z,84.27
2022-09-07T03:22:05.341Z,84.06
2022-09-07T03:27:08.087Z,84.09
2022-09-07T03:32:12.359Z,84.20
2022-09-07T03:37:15.212Z,84.18
2022-09-07T03:42:17.997Z,84.24
2022-09-07T03:47:22.128Z,84.09
2022-09-07T03:52:24.857Z,84.05
2022-09-07T03:57:27.687Z,84.10
2022-09-07T04:02:31.893Z,84.18
2022-09-07T04:07:34.744Z,84.22
2022-09-07T04:12:37.767Z,84.27
2022-09-07T04:17:41.801Z,84.45
2022-09-07T04:22:44.661Z,84.61
2022-09-07T04:27:47.457Z,84.60
2022-09-07T04:32:51.627Z,84.71
2022-09-07T04:37:54.371Z,84.79
2022-09-07T04:42:57.104Z,84.72
2022-09-07T04:48:01.201Z,84.72
2022-09-07T04:53:04.038Z,84.54
2022-09-07T04:58:06.835Z,84.57
2022-09-07T05:03:10.958Z,84.47
2022-09-07T05:08:13.697Z,84.25
2022-09-07T05:13:16.676Z,84.23
2022-09-07T05:18:21.256Z,84.25
2022-09-07T05:23:24.368Z,84.48
2022-09-07T05:28:27.320Z,84.38
2022-09-07T05:38:54.318Z,84.43
2022-09-07T05:49:21.628Z,83.87
2022-09-07T05:54:24.459Z,83.70
2022-09-07T05:59:27.247Z,83.59
2022-09-07T06:04:31.327Z,83.53
2022-09-07T06:09:34.143Z,83.09
2022-09-07T06:14:36.995Z,83.00
2022-09-07T06:19:41.075Z,82.80
2022-09-07T06:24:44.119Z,82.41
2022-09-07T06:29:46.901Z,82.15
2022-09-07T06:34:51.031Z,82.25
2022-09-07T06:39:53.814Z,82.18
2022-09-07T06:44:57.300Z,81.82
2022-09-07T06:50:01.518Z,81.81
2022-09-07T06:55:04.964Z,81.86
2022-09-07T07:00:08.893Z,81.63
2022-09-07T07:05:13.140Z,81.33
2022-09-07T07:10:17.837Z,80.88
2022-09-07T07:15:22.779Z,80.79
2022-09-07T07:20:26.941Z,80.40
2022-09-07T07:25:29.973Z,80.13
2022-09-07T07:30:32.979Z,79.28
2022-09-07T07:35:37.055Z,79.03
2022-09-07T07:40:39.985Z,77.96
2022-09-07T07:51:09.876Z,77.41
2022-09-07T07:56:14.825Z,76.50
2022-09-07T08:01:18.535Z,75.63
2022-09-07T08:06:22.626Z,74.46
2022-09-07T08:11:25.871Z,74.01
2022-09-07T08:16:28.692Z,73.92
2022-09-07T08:21:32.729Z,73.62
2022-09-07T08:26:35.388Z,73.33
2022-09-07T08:31:38.172Z,73.62
2022-09-07T08:36:42.288Z,73.58
2022-09-07T08:41:58.902Z,73.94
2022-09-07T08:47:04.692Z,74.20
2022-09-07T08:52:12.601Z,74.32
2022-09-07T08:57:27.433Z,73.91
2022-09-07T09:06:10.906Z,74.13
2022-09-07T09:08:04.538Z,73.81
2022-09-07T09:13:16.022Z,73.12
2022-09-07T09:18:30.681Z,72.19
2022-09-07T09:23:38.208Z,71.41
2022-09-07T09:28:41.080Z,70.99
2022-09-07T09:33:43.743Z,71.22
2022-09-07T09:38:47.764Z,70.63
2022-09-07T09:43:54.157Z,69.90
2022-09-07T09:48:58.327Z,69.51
2022-09-07T09:54:05.901Z,69.52
2022-09-07T10:04:36.978Z,69.12
2022-09-07T10:09:42.502Z,68.89
2022-09-07T10:14:46.338Z,69.00
2022-09-07T10:19:49.561Z,67.98
2022-09-07T10:24:53.553Z,67.52
2022-09-07T10:29:56.418Z,67.59
2022-09-07T10:35:09.455Z,66.87
2022-09-07T10:40:22.875Z,66.56
2022-09-07T10:45:32.224Z,65.80
2022-09-07T10:50:42.202Z,65.72
2022-09-07T10:55:53.069Z,64.79
2022-09-07T11:01:06.669Z,63.31
2022-09-07T11:06:16.177Z,63.58
2022-09-07T11:12:00.805Z,62.98
2022-09-07T11:16:53.812Z,63.25
2022-09-07T11:22:00.867Z,63.08
2022-09-07T11:27:11.044Z,59.95
2022-09-07T11:32:18.566Z,57.71
2022-09-07T11:37:24.377Z,55.35
2022-09-07T11:42:48.551Z,58.35
2022-09-07T11:47:56.628Z,54.84
2022-09-07T11:53:01.318Z,53.11
2022-09-07T11:58:17.248Z,51.07
2022-09-07T12:03:38.011Z,50.66
2022-09-07T12:08:51.478Z,55.20
2022-09-07T12:14:08.168Z,52.88
2022-09-07T12:19:18.801Z,50.65
2022-09-07T12:24:40.331Z,54.76
2022-09-07T12:29:45.668Z,57.42
2022-09-07T12:34:53.833Z,55.87
2022-09-07T12:40:34.875Z,59.00
2022-09-07T12:45:53.013Z,61.22
2022-09-07T12:50:58.860Z,61.36
2022-09-07T12:56:19.186Z,59.38
2022-09-07T13:01:32.757Z,53.77
2022-09-07T13:07:05.588Z,51.54
2022-09-07T13:17:56.316Z,50.60
2022-09-07T13:23:26.722Z,50.17
2022-09-07T13:28:33.138Z,49.90
2022-09-07T13:33:52.636Z,49.49
2022-09-07T13:38:55.848Z,48.98
2022-09-07T13:44:00.725Z,49.10
2022-09-07T13:49:09.745Z,50.95
2022-09-07T13:54:18.969Z,53.87
2022-09-07T13:59:23.797Z,55.01
2022-09-07T14:04:30.794Z,54.58
2022-09-07T14:09:34.688Z,55.12
2022-09-07T14:14:37.319Z,55.75
2022-09-07T14:19:43.347Z,56.26
2022-09-07T14:24:49.449Z,56.01
2022-09-07T14:29:52.527Z,55.27
2022-09-07T14:34:56.631Z,55.01
2022-09-07T14:39:59.327Z,56.30
2022-09-07T14:45:19.011Z,56.59
2022-09-07T14:50:24.735Z,57.30
2022-09-07T14:55:30.424Z,57.55
2022-09-07T15:00:33.450Z,57.31
2022-09-07T15:05:48.571Z,53.08
2022-09-07T15:16:27.426Z,51.80
2022-09-07T15:21:32.855Z,54.13
2022-09-07T15:32:04.834Z,56.25
2022-09-07T15:47:56.331Z,58.03
2022-09-07T15:53:00.998Z,58.17
2022-09-07T15:58:11.586Z,58.31
2022-09-07T16:03:14.770Z,58.61
2022-09-07T16:08:26.121Z,59.06
2022-09-07T16:13:31.372Z,59.71
2022-09-07T16:18:35.155Z,59.97
2022-09-07T16:23:40.020Z,60.25
2022-09-07T16:28:44.687Z,60.89
2022-09-07T16:33:47.451Z,61.45
2022-09-07T16:38:55.851Z,61.72
2022-09-07T16:43:59.442Z,61.55
2022-09-07T16:49:02.076Z,61.88
2022-09-07T16:54:06.488Z,62.72
2022-09-07T16:59:10.216Z,63.09
2022-09-07T17:04:12.868Z,63.42
2022-09-07T17:09:16.905Z,63.57
2022-09-07T17:14:19.869Z,64.23
2022-09-07T17:19:30.468Z,64.81
2022-09-07T17:24:34.624Z,65.16
2022-09-07T17:29:37.727Z,65.62
2022-09-07T17:34:40.457Z,65.79
2022-09-07T17:39:44.878Z,66.04
2022-09-07T17:44:52.799Z,66.17
2022-09-07T17:49:55.681Z,66.51
2022-09-07T17:55:01.324Z,66.70
2022-09-07T18:00:11.750Z,67.11
2022-09-07T18:05:15.105Z,67.35
2022-09-07T18:10:19.258Z,67.72
2022-09-07T18:15:22.144Z,67.90
2022-09-07T18:20:24.947Z,68.13
2022-09-07T18:25:29.334Z,68.27
2022-09-07T18:30:32.568Z,68.61
2022-09-07T18:40:40.068Z,68.94
2022-09-07T18:45:42.877Z,69.27
2022-09-07T18:50:45.603Z,69.03
2022-09-07T18:55:50.747Z,69.44
2022-09-07T19:00:58.002Z,69.67
2022-09-07T19:06:03.620Z,69.94
2022-09-07T19:11:09.133Z,70.06
2022-09-07T19:16:13.945Z,70.26
2022-09-07T19:21:19.507Z,70.18
2022-09-07T19:26:24.792Z,70.45
2022-09-07T19:31:28.499Z,70.62
2022-09-07T19:36:33.385Z,69.41
2022-09-07T19:41:40.932Z,68.84
2022-09-07T19:46:44.694Z,69.03
2022-09-07T19:51:49.392Z,69.23
2022-09-07T19:56:53.411Z,69.30
2022-09-07T20:01:56.088Z,69.47
2022-09-07T20:06:58.703Z,69.92
2022-09-07T20:12:03.811Z,69.92
2022-09-07T20:17:06.541Z,70.03
2022-09-07T20:22:09.125Z,70.27
2022-09-07T20:27:13.024Z,70.53
2022-09-07T20:32:16.746Z,70.91
2022-09-07T20:37:19.347Z,71.53
2022-09-07T20:42:23.276Z,71.49
2022-09-07T20:47:25.937Z,71.55
2022-09-07T20:52:28.559Z,71.89
2022-09-07T20:57:32.538Z,72.05
2022-09-07T21:02:35.824Z,72.33
2022-09-07T21:07:38.792Z,72.31
2022-09-07T21:12:42.868Z,72.85
2022-09-07T21:17:45.496Z,73.04
2022-09-07T21:22:48.202Z,73.46
2022-09-07T21:27:52.159Z,73.60
2022-09-07T21:32:54.732Z,74.12
2022-09-07T21:37:57.373Z,74.16
2022-09-07T21:43:01.305Z,74.25
2022-09-07T21:48:04.292Z,74.83
2022-09-07T21:53:06.923Z,74.99
2022-09-07T21:58:10.868Z,75.07
2022-09-07T22:03:13.646Z,75.23
2022-09-07T22:08:17.106Z,74.98
2022-09-07T22:13:21.084Z,75.37
2022-09-07T22:18:23.656Z,75.13
2022-09-07T22:23:26.252Z,75.51
2022-09-07T22:28:31.288Z,75.93
2022-09-07T22:33:33.967Z,75.65
2022-09-07T22:38:36.726Z,75.51
2022-09-07T22:43:41.305Z,76.11
2022-09-07T22:48:44.390Z,76.11
2022-09-07T22:53:46.991Z,76.62
2022-09-07T22:58:52.463Z,76.62
2022-09-07T23:03:56.154Z,76.68
2022-09-07T23:09:00.287Z,76.55
2022-09-07T23:14:06.531Z,76.21
2022-09-07T23:19:10.577Z,76.08
2022-09-07T23:24:14.438Z,76.29
2022-09-07T23:29:20.783Z,77.00
2022-09-07T23:34:23.368Z,77.19
2022-09-07T23:39:26.088Z,77.38
2022-09-07T23:44:30.970Z,77.45
2022-09-07T23:49:33.929Z,77.40
2022-09-07T23:54:36.759Z,77.75
2022-09-07T23:59:41.093Z,77.62
